sensor_id;sensor_type;location;lat;lon;timestamp;P1;durP1;ratioP1;P2;durP2;ratioP2
8050;SDS011;4068;42.158;24.732;2022-10-16T00:01:15;12.10;;;7.53;;
8050;SDS011;4068;42.158;24.732;2022-10-16T00:03:42;12.93;;;8.68;;
8050;SDS011;4068;42.158;24.732;2022-10-16T00:06:09;12.70;;;9.18;;
8050;SDS011;4068;42.158;24.732;2022-10-16T00:08:36;14.90;;;9.10;;
8050;SDS011;4068;42.158;24.732;2022-10-16T00:11:09;9.88;;;7.45;;
8050;SDS011;4068;42.158;24.732;2022-10-16T00:13:39;13.88;;;7.90;;
8050;SDS011;4068;42.158;24.732;2022-10-16T00:16:06;10.52;;;7.63;;
8050;SDS011;4068;42.158;24.732;2022-10-16T00:18:32;12.85;;;8.30;;
8050;SDS011;4068;42.158;24.732;2022-10-16T00:21:08;15.40;;;8.90;;
8050;SDS011;4068;42.158;24.732;2022-10-16T00:23:39;12.13;;;8.38;;
8050;SDS011;4068;42.158;24.732;2022-10-16T00:26:06;13.20;;;9.02;;
8050;SDS011;4068;42.158;24.732;2022-10-16T00:28:33;13.07;;;8.90;;
8050;SDS011;4068;42.158;24.732;2022-10-16T00:31:02;14.25;;;9.07;;
8050;SDS011;4068;42.158;24.732;2022-10-16T00:33:29;16.98;;;9.57;;
8050;SDS011;4068;42.158;24.732;2022-10-16T00:35:54;19.50;;;10.25;;
8050;SDS011;4068;42.158;24.732;2022-10-16T00:38:23;17.20;;;10.10;;
8050;SDS011;4068;42.158;24.732;2022-10-16T00:40:48;16.63;;;9.45;;
8050;SDS011;4068;42.158;24.732;2022-10-16T00:43:31;14.57;;;9.02;;
8050;SDS011;4068;42.158;24.732;2022-10-16T00:46:00;15.07;;;10.32;;
8050;SDS011;4068;42.158;24.732;2022-10-16T00:48:26;15.40;;;9.93;;
8050;SDS011;4068;42.158;24.732;2022-10-16T00:50:52;15.93;;;9.55;;
8050;SDS011;4068;42.158;24.732;2022-10-16T00:53:18;15.98;;;10.02;;
8050;SDS011;4068;42.158;24.732;2022-10-16T00:55:44;13.30;;;8.75;;
8050;SDS011;4068;42.158;24.732;2022-10-16T00:58:11;15.27;;;9.07;;
8050;SDS011;4068;42.158;24.732;2022-10-16T01:00:36;14.50;;;9.65;;
8050;SDS011;4068;42.158;24.732;2022-10-16T01:03:03;14.73;;;10.40;;
8050;SDS011;4068;42.158;24.732;2022-10-16T01:05:49;17.80;;;10.02;;
8050;SDS011;4068;42.158;24.732;2022-10-16T01:08:24;14.48;;;10.25;;
8050;SDS011;4068;42.158;24.732;2022-10-16T01:11:05;26.00;;;10.95;;
8050;SDS011;4068;42.158;24.732;2022-10-16T01:13:40;16.60;;;10.77;;
8050;SDS011;4068;42.158;24.732;2022-10-16T01:16:16;17.63;;;10.52;;
8050;SDS011;4068;42.158;24.732;2022-10-16T01:18:52;15.25;;;10.23;;
8050;SDS011;4068;42.158;24.732;2022-10-16T01:21:24;14.13;;;10.13;;
8050;SDS011;4068;42.158;24.732;2022-10-16T01:23:59;14.43;;;10.32;;
8050;SDS011;4068;42.158;24.732;2022-10-16T01:29:24;17.77;;;10.65;;
8050;SDS011;4068;42.158;24.732;2022-10-16T01:31:56;18.30;;;10.30;;
8050;SDS011;4068;42.158;24.732;2022-10-16T01:34:28;16.25;;;10.63;;
8050;SDS011;4068;42.158;24.732;2022-10-16T01:37:15;17.80;;;11.40;;
8050;SDS011;4068;42.158;24.732;2022-10-16T01:39:47;16.88;;;10.55;;
8050;SDS011;4068;42.158;24.732;2022-10-16T01:42:20;14.52;;;10.48;;
8050;SDS011;4068;42.158;24.732;2022-10-16T01:44:49;13.60;;;9.82;;
8050;SDS011;4068;42.158;24.732;2022-10-16T01:47:17;14.35;;;10.10;;
8050;SDS011;4068;42.158;24.732;2022-10-16T01:49:46;21.00;;;11.75;;
8050;SDS011;4068;42.158;24.732;2022-10-16T01:52:13;17.52;;;11.25;;
8050;SDS011;4068;42.158;24.732;2022-10-16T01:54:43;17.50;;;10.90;;
8050;SDS011;4068;42.158;24.732;2022-10-16T01:57:12;20.55;;;10.90;;
8050;SDS011;4068;42.158;24.732;2022-10-16T01:59:42;21.80;;;11.57;;
8050;SDS011;4068;42.158;24.732;2022-10-16T02:02:11;18.58;;;11.55;;
8050;SDS011;4068;42.158;24.732;2022-10-16T02:04:44;24.88;;;11.35;;
8050;SDS011;4068;42.158;24.732;2022-10-16T02:07:12;17.45;;;11.13;;
8050;SDS011;4068;42.158;24.732;2022-10-16T02:09:39;15.20;;;11.00;;
8050;SDS011;4068;42.158;24.732;2022-10-16T02:12:17;18.40;;;11.73;;
8050;SDS011;4068;42.158;24.732;2022-10-16T02:14:52;20.08;;;11.18;;
8050;SDS011;4068;42.158;24.732;2022-10-16T02:17:18;15.73;;;10.95;;
8050;SDS011;4068;42.158;24.732;2022-10-16T02:19:44;24.85;;;13.00;;
8050;SDS011;4068;42.158;24.732;2022-10-16T02:22:15;20.05;;;12.32;;
8050;SDS011;4068;42.158;24.732;2022-10-16T02:24:51;19.75;;;12.25;;
8050;SDS011;4068;42.158;24.732;2022-10-16T02:30:06;21.00;;;13.75;;
8050;SDS011;4068;42.158;24.732;2022-10-16T02:32:37;27.65;;;15.32;;
8050;SDS011;4068;42.158;24.732;2022-10-16T02:35:06;30.65;;;18.40;;
8050;SDS011;4068;42.158;24.732;2022-10-16T02:37:32;29.40;;;18.17;;
8050;SDS011;4068;42.158;24.732;2022-10-16T02:39:58;27.25;;;17.20;;
8050;SDS011;4068;42.158;24.732;2022-10-16T02:42:28;29.55;;;15.98;;
8050;SDS011;4068;42.158;24.732;2022-10-16T02:44:54;27.35;;;16.23;;
8050;SDS011;4068;42.158;24.732;2022-10-16T02:47:20;22.95;;;15.00;;
8050;SDS011;4068;42.158;24.732;2022-10-16T02:49:45;25.13;;;14.70;;
8050;SDS011;4068;42.158;24.732;2022-10-16T02:52:11;24.85;;;14.38;;
8050;SDS011;4068;42.158;24.732;2022-10-16T02:54:36;25.98;;;14.60;;
8050;SDS011;4068;42.158;24.732;2022-10-16T02:57:02;27.80;;;15.82;;
8050;SDS011;4068;42.158;24.732;2022-10-16T02:59:27;27.88;;;16.58;;
8050;SDS011;4068;42.158;24.732;2022-10-16T03:01:52;29.17;;;17.10;;
8050;SDS011;4068;42.158;24.732;2022-10-16T03:04:18;38.88;;;19.67;;
8050;SDS011;4068;42.158;24.732;2022-10-16T03:06:43;26.65;;;15.98;;
8050;SDS011;4068;42.158;24.732;2022-10-16T03:09:09;28.27;;;16.95;;
8050;SDS011;4068;42.158;24.732;2022-10-16T03:11:34;28.50;;;17.17;;
8050;SDS011;4068;42.158;24.732;2022-10-16T03:13:59;30.75;;;20.13;;
8050;SDS011;4068;42.158;24.732;2022-10-16T03:16:25;31.05;;;17.83;;
8050;SDS011;4068;42.158;24.732;2022-10-16T03:18:50;36.15;;;18.70;;
8050;SDS011;4068;42.158;24.732;2022-10-16T03:21:16;30.65;;;17.15;;
8050;SDS011;4068;42.158;24.732;2022-10-16T03:23:41;58.17;;;26.42;;
8050;SDS011;4068;42.158;24.732;2022-10-16T03:26:07;52.10;;;25.40;;
8050;SDS011;4068;42.158;24.732;2022-10-16T03:28:32;46.28;;;24.70;;
8050;SDS011;4068;42.158;24.732;2022-10-16T03:30:58;30.95;;;16.50;;
8050;SDS011;4068;42.158;24.732;2022-10-16T03:33:23;26.50;;;16.10;;
8050;SDS011;4068;42.158;24.732;2022-10-16T03:35:52;27.50;;;16.27;;
8050;SDS011;4068;42.158;24.732;2022-10-16T03:38:18;22.20;;;13.52;;
8050;SDS011;4068;42.158;24.732;2022-10-16T03:40:44;21.88;;;13.23;;
8050;SDS011;4068;42.158;24.732;2022-10-16T03:43:09;24.52;;;14.07;;
8050;SDS011;4068;42.158;24.732;2022-10-16T03:45:35;30.17;;;15.38;;
8050;SDS011;4068;42.158;24.732;2022-10-16T03:48:00;32.10;;;16.33;;
8050;SDS011;4068;42.158;24.732;2022-10-16T03:50:27;19.55;;;14.05;;
8050;SDS011;4068;42.158;24.732;2022-10-16T03:52:52;21.13;;;12.88;;
8050;SDS011;4068;42.158;24.732;2022-10-16T03:55:18;20.23;;;12.40;;
8050;SDS011;4068;42.158;24.732;2022-10-16T03:57:43;19.83;;;12.13;;
8050;SDS011;4068;42.158;24.732;2022-10-16T04:00:09;17.53;;;11.80;;
8050;SDS011;4068;42.158;24.732;2022-10-16T04:02:35;19.27;;;11.97;;
8050;SDS011;4068;42.158;24.732;2022-10-16T04:05:00;17.02;;;11.48;;
8050;SDS011;4068;42.158;24.732;2022-10-16T04:07:26;17.67;;;12.03;;
8050;SDS011;4068;42.158;24.732;2022-10-16T04:09:51;19.08;;;12.38;;
8050;SDS011;4068;42.158;24.732;2022-10-16T04:12:17;21.70;;;13.30;;
8050;SDS011;4068;42.158;24.732;2022-10-16T04:14:42;29.20;;;12.57;;
8050;SDS011;4068;42.158;24.732;2022-10-16T04:17:08;19.90;;;12.93;;
8050;SDS011;4068;42.158;24.732;2022-10-16T04:19:33;25.37;;;16.53;;
8050;SDS011;4068;42.158;24.732;2022-10-16T04:21:58;31.75;;;18.55;;
8050;SDS011;4068;42.158;24.732;2022-10-16T04:24:24;26.30;;;16.53;;
8050;SDS011;4068;42.158;24.732;2022-10-16T04:26:49;29.57;;;17.17;;
8050;SDS011;4068;42.158;24.732;2022-10-16T04:29:15;35.30;;;20.73;;
8050;SDS011;4068;42.158;24.732;2022-10-16T04:31:40;29.83;;;16.30;;
8050;SDS011;4068;42.158;24.732;2022-10-16T04:34:05;26.35;;;16.08;;
8050;SDS011;4068;42.158;24.732;2022-10-16T04:36:31;29.80;;;17.17;;
8050;SDS011;4068;42.158;24.732;2022-10-16T04:38:56;30.07;;;17.07;;
8050;SDS011;4068;42.158;24.732;2022-10-16T04:41:22;34.30;;;18.67;;
8050;SDS011;4068;42.158;24.732;2022-10-16T04:43:47;40.00;;;20.55;;
8050;SDS011;4068;42.158;24.732;2022-10-16T04:46:13;30.60;;;18.83;;
8050;SDS011;4068;42.158;24.732;2022-10-16T04:48:38;33.40;;;19.20;;
8050;SDS011;4068;42.158;24.732;2022-10-16T04:51:03;33.03;;;16.47;;
8050;SDS011;4068;42.158;24.732;2022-10-16T04:53:29;32.57;;;19.50;;
8050;SDS011;4068;42.158;24.732;2022-10-16T04:55:54;41.07;;;23.87;;
8050;SDS011;4068;42.158;24.732;2022-10-16T04:58:21;36.93;;;19.57;;
8050;SDS011;4068;42.158;24.732;2022-10-16T05:00:46;42.33;;;21.73;;
8050;SDS011;4068;42.158;24.732;2022-10-16T05:03:12;48.77;;;25.37;;
8050;SDS011;4068;42.158;24.732;2022-10-16T05:05:42;47.53;;;27.50;;
8050;SDS011;4068;42.158;24.732;2022-10-16T05:08:08;58.55;;;32.72;;
8050;SDS011;4068;42.158;24.732;2022-10-16T05:10:34;55.28;;;28.33;;
8050;SDS011;4068;42.158;24.732;2022-10-16T05:12:59;38.30;;;22.95;;
8050;SDS011;4068;42.158;24.732;2022-10-16T05:15:24;40.57;;;25.00;;
8050;SDS011;4068;42.158;24.732;2022-10-16T05:17:52;35.22;;;20.98;;
8050;SDS011;4068;42.158;24.732;2022-10-16T05:20:18;29.50;;;16.80;;
8050;SDS011;4068;42.158;24.732;2022-10-16T05:22:44;20.48;;;12.63;;
8050;SDS011;4068;42.158;24.732;2022-10-16T05:25:09;24.80;;;13.27;;
8050;SDS011;4068;42.158;24.732;2022-10-16T05:27:35;25.20;;;13.65;;
8050;SDS011;4068;42.158;24.732;2022-10-16T05:30:00;32.30;;;15.80;;
8050;SDS011;4068;42.158;24.732;2022-10-16T05:32:25;29.25;;;16.08;;
8050;SDS011;4068;42.158;24.732;2022-10-16T05:34:51;51.38;;;35.53;;
8050;SDS011;4068;42.158;24.732;2022-10-16T05:37:17;31.67;;;22.35;;
8050;SDS011;4068;42.158;24.732;2022-10-16T05:39:42;22.05;;;13.35;;
8050;SDS011;4068;42.158;24.732;2022-10-16T05:42:07;16.23;;;11.65;;
8050;SDS011;4068;42.158;24.732;2022-10-16T05:44:33;17.02;;;10.90;;
8050;SDS011;4068;42.158;24.732;2022-10-16T05:46:58;17.55;;;10.52;;
8050;SDS011;4068;42.158;24.732;2022-10-16T05:49:24;20.13;;;10.27;;
8050;SDS011;4068;42.158;24.732;2022-10-16T05:51:49;18.15;;;9.73;;
8050;SDS011;4068;42.158;24.732;2022-10-16T05:54:15;15.48;;;9.45;;
8050;SDS011;4068;42.158;24.732;2022-10-16T05:56:40;11.93;;;9.10;;
8050;SDS011;4068;42.158;24.732;2022-10-16T05:59:06;17.23;;;8.95;;
8050;SDS011;4068;42.158;24.732;2022-10-16T06:01:31;14.35;;;9.48;;
8050;SDS011;4068;42.158;24.732;2022-10-16T06:03:57;16.80;;;10.20;;
8050;SDS011;4068;42.158;24.732;2022-10-16T06:06:24;17.05;;;10.18;;
8050;SDS011;4068;42.158;24.732;2022-10-16T06:08:51;21.95;;;10.30;;
8050;SDS011;4068;42.158;24.732;2022-10-16T06:11:18;16.50;;;11.13;;
8050;SDS011;4068;42.158;24.732;2022-10-16T06:13:49;14.90;;;9.93;;
8050;SDS011;4068;42.158;24.732;2022-10-16T06:16:15;12.77;;;9.93;;
8050;SDS011;4068;42.158;24.732;2022-10-16T06:18:40;15.13;;;10.10;;
8050;SDS011;4068;42.158;24.732;2022-10-16T06:21:07;16.98;;;9.95;;
8050;SDS011;4068;42.158;24.732;2022-10-16T06:23:34;14.35;;;10.80;;
8050;SDS011;4068;42.158;24.732;2022-10-16T06:26:07;15.00;;;10.40;;
8050;SDS011;4068;42.158;24.732;2022-10-16T06:28:33;15.57;;;10.23;;
8050;SDS011;4068;42.158;24.732;2022-10-16T06:30:59;17.05;;;11.52;;
8050;SDS011;4068;42.158;24.732;2022-10-16T06:33:25;16.88;;;11.10;;
8050;SDS011;4068;42.158;24.732;2022-10-16T06:35:51;16.20;;;10.88;;
8050;SDS011;4068;42.158;24.732;2022-10-16T06:38:16;15.82;;;10.48;;
8050;SDS011;4068;42.158;24.732;2022-10-16T06:40:41;16.52;;;10.20;;
8050;SDS011;4068;42.158;24.732;2022-10-16T06:43:07;12.43;;;9.43;;
8050;SDS011;4068;42.158;24.732;2022-10-16T06:45:32;14.15;;;9.48;;
8050;SDS011;4068;42.158;24.732;2022-10-16T06:47:57;13.57;;;9.35;;
8050;SDS011;4068;42.158;24.732;2022-10-16T06:50:23;13.55;;;9.48;;
8050;SDS011;4068;42.158;24.732;2022-10-16T06:52:48;12.52;;;9.48;;
8050;SDS011;4068;42.158;24.732;2022-10-16T06:55:14;17.23;;;9.00;;
8050;SDS011;4068;42.158;24.732;2022-10-16T06:57:40;14.25;;;9.50;;
8050;SDS011;4068;42.158;24.732;2022-10-16T07:00:05;17.75;;;10.25;;
8050;SDS011;4068;42.158;24.732;2022-10-16T07:02:31;14.45;;;9.50;;
8050;SDS011;4068;42.158;24.732;2022-10-16T07:04:57;17.80;;;10.65;;
8050;SDS011;4068;42.158;24.732;2022-10-16T07:07:22;13.30;;;10.27;;
8050;SDS011;4068;42.158;24.732;2022-10-16T07:09:49;12.80;;;9.88;;
8050;SDS011;4068;42.158;24.732;2022-10-16T07:12:15;14.38;;;9.55;;
8050;SDS011;4068;42.158;24.732;2022-10-16T07:14:40;12.43;;;8.95;;
8050;SDS011;4068;42.158;24.732;2022-10-16T07:17:06;14.23;;;8.32;;
8050;SDS011;4068;42.158;24.732;2022-10-16T07:19:31;13.57;;;8.40;;
8050;SDS011;4068;42.158;24.732;2022-10-16T07:21:56;16.35;;;8.57;;
8050;SDS011;4068;42.158;24.732;2022-10-16T07:24:22;13.05;;;9.35;;
8050;SDS011;4068;42.158;24.732;2022-10-16T07:26:47;13.95;;;8.82;;
8050;SDS011;4068;42.158;24.732;2022-10-16T07:29:17;12.23;;;7.85;;
8050;SDS011;4068;42.158;24.732;2022-10-16T07:31:44;10.98;;;8.73;;
8050;SDS011;4068;42.158;24.732;2022-10-16T07:34:11;13.88;;;9.07;;
8050;SDS011;4068;42.158;24.732;2022-10-16T07:36:37;12.57;;;9.50;;
8050;SDS011;4068;42.158;24.732;2022-10-16T07:39:02;14.00;;;9.32;;
8050;SDS011;4068;42.158;24.732;2022-10-16T07:41:28;12.13;;;9.07;;
8050;SDS011;4068;42.158;24.732;2022-10-16T07:43:53;15.00;;;9.27;;
8050;SDS011;4068;42.158;24.732;2022-10-16T07:46:20;13.65;;;8.75;;
8050;SDS011;4068;42.158;24.732;2022-10-16T07:48:47;14.15;;;9.80;;
8050;SDS011;4068;42.158;24.732;2022-10-16T07:51:16;14.55;;;8.27;;
8050;SDS011;4068;42.158;24.732;2022-10-16T07:53:43;11.88;;;8.93;;
8050;SDS011;4068;42.158;24.732;2022-10-16T07:56:09;13.60;;;9.93;;
8050;SDS011;4068;42.158;24.732;2022-10-16T07:58:36;11.27;;;8.60;;
8050;SDS011;4068;42.158;24.732;2022-10-16T08:01:03;16.90;;;9.70;;
8050;SDS011;4068;42.158;24.732;2022-10-16T08:03:32;13.23;;;9.48;;
8050;SDS011;4068;42.158;24.732;2022-10-16T08:05:58;13.48;;;8.65;;
8050;SDS011;4068;42.158;24.732;2022-10-16T08:08:25;15.20;;;8.90;;
8050;SDS011;4068;42.158;24.732;2022-10-16T08:10:51;12.63;;;8.18;;
8050;SDS011;4068;42.158;24.732;2022-10-16T08:13:16;13.90;;;8.82;;
8050;SDS011;4068;42.158;24.732;2022-10-16T08:15:42;13.15;;;8.57;;
8050;SDS011;4068;42.158;24.732;2022-10-16T08:18:09;12.30;;;7.88;;
8050;SDS011;4068;42.158;24.732;2022-10-16T08:20:35;16.10;;;9.45;;
8050;SDS011;4068;42.158;24.732;2022-10-16T08:23:01;10.90;;;8.35;;
8050;SDS011;4068;42.158;24.732;2022-10-16T08:25:27;15.10;;;8.98;;
8050;SDS011;4068;42.158;24.732;2022-10-16T08:27:53;12.35;;;8.55;;
8050;SDS011;4068;42.158;24.732;2022-10-16T08:30:19;11.23;;;7.35;;
8050;SDS011;4068;42.158;24.732;2022-10-16T08:32:45;14.45;;;8.48;;
8050;SDS011;4068;42.158;24.732;2022-10-16T08:35:12;10.13;;;7.53;;
8050;SDS011;4068;42.158;24.732;2022-10-16T08:37:38;13.52;;;7.90;;
8050;SDS011;4068;42.158;24.732;2022-10-16T08:40:04;10.73;;;7.93;;
8050;SDS011;4068;42.158;24.732;2022-10-16T08:47:59;12.65;;;7.55;;
8050;SDS011;4068;42.158;24.732;2022-10-16T08:50:30;13.60;;;7.88;;
8050;SDS011;4068;42.158;24.732;2022-10-16T08:52:58;10.55;;;7.45;;
8050;SDS011;4068;42.158;24.732;2022-10-16T08:57:59;9.07;;;7.05;;
8050;SDS011;4068;42.158;24.732;2022-10-16T09:00:25;10.27;;;6.85;;
8050;SDS011;4068;42.158;24.732;2022-10-16T09:16:55;8.57;;;6.40;;
8050;SDS011;4068;42.158;24.732;2022-10-16T09:19:37;8.85;;;7.20;;
8050;SDS011;4068;42.158;24.732;2022-10-16T09:22:14;7.82;;;6.25;;
8050;SDS011;4068;42.158;24.732;2022-10-16T09:24:41;9.25;;;5.70;;
8050;SDS011;4068;42.158;24.732;2022-10-16T09:27:11;8.95;;;6.43;;
8050;SDS011;4068;42.158;24.732;2022-10-16T09:29:38;7.45;;;6.00;;
8050;SDS011;4068;42.158;24.732;2022-10-16T09:32:11;7.40;;;5.72;;
8050;SDS011;4068;42.158;24.732;2022-10-16T09:34:42;9.30;;;5.60;;
8050;SDS011;4068;42.158;24.732;2022-10-16T09:37:12;11.52;;;6.75;;
8050;SDS011;4068;42.158;24.732;2022-10-16T09:39:46;8.20;;;6.38;;
8050;SDS011;4068;42.158;24.732;2022-10-16T09:42:16;6.45;;;5.45;;
8050;SDS011;4068;42.158;24.732;2022-10-16T09:44:47;9.63;;;5.43;;
8050;SDS011;4068;42.158;24.732;2022-10-16T09:47:18;6.95;;;5.25;;
8050;SDS011;4068;42.158;24.732;2022-10-16T09:49:58;7.53;;;5.30;;
8050;SDS011;4068;42.158;24.732;2022-10-16T09:52:27;10.10;;;5.60;;
8050;SDS011;4068;42.158;24.732;2022-10-16T09:54:54;9.02;;;5.85;;
8050;SDS011;4068;42.158;24.732;2022-10-16T09:57:21;9.57;;;5.45;;
8050;SDS011;4068;42.158;24.732;2022-10-16T09:59:48;9.90;;;6.22;;
8050;SDS011;4068;42.158;24.732;2022-10-16T10:02:38;7.82;;;5.50;;
8050;SDS011;4068;42.158;24.732;2022-10-16T10:05:04;8.18;;;4.95;;
8050;SDS011;4068;42.158;24.732;2022-10-16T10:07:42;12.02;;;6.20;;
8050;SDS011;4068;42.158;24.732;2022-10-16T10:10:19;6.07;;;4.80;;
8050;SDS011;4068;42.158;24.732;2022-10-16T10:12:47;5.30;;;4.80;;
8050;SDS011;4068;42.158;24.732;2022-10-16T10:15:13;6.07;;;5.13;;
8050;SDS011;4068;42.158;24.732;2022-10-16T10:17:47;6.47;;;4.53;;
8050;SDS011;4068;42.158;24.732;2022-10-16T10:22:59;6.70;;;5.25;;
8050;SDS011;4068;42.158;24.732;2022-10-16T10:31:19;7.95;;;5.30;;
8050;SDS011;4068;42.158;24.732;2022-10-16T10:33:57;7.45;;;4.90;;
8050;SDS011;4068;42.158;24.732;2022-10-16T10:36:35;6.28;;;5.03;;
8050;SDS011;4068;42.158;24.732;2022-10-16T10:39:07;8.60;;;5.57;;
8050;SDS011;4068;42.158;24.732;2022-10-16T10:47:23;6.80;;;5.38;;
8050;SDS011;4068;42.158;24.732;2022-10-16T10:55:59;9.95;;;5.70;;
8050;SDS011;4068;42.158;24.732;2022-10-16T10:58:43;6.40;;;4.80;;
8050;SDS011;4068;42.158;24.732;2022-10-16T11:01:14;12.43;;;5.38;;
8050;SDS011;4068;42.158;24.732;2022-10-16T11:06:30;8.80;;;5.13;;
8050;SDS011;4068;42.158;24.732;2022-10-16T11:09:07;5.93;;;4.72;;
8050;SDS011;4068;42.158;24.732;2022-10-16T11:11:41;5.80;;;4.55;;
8050;SDS011;4068;42.158;24.732;2022-10-16T11:14:26;6.60;;;5.32;;
8050;SDS011;4068;42.158;24.732;2022-10-16T11:17:16;11.85;;;7.40;;
8050;SDS011;4068;42.158;24.732;2022-10-16T11:20:11;7.57;;;4.85;;
8050;SDS011;4068;42.158;24.732;2022-10-16T11:22:42;5.55;;;4.57;;
8050;SDS011;4068;42.158;24.732;2022-10-16T11:25:18;8.35;;;4.68;;
8050;SDS011;4068;42.158;24.732;2022-10-16T11:27:53;6.57;;;4.20;;
8050;SDS011;4068;42.158;24.732;2022-10-16T11:30:29;6.82;;;4.65;;
8050;SDS011;4068;42.158;24.732;2022-10-16T11:33:10;9.63;;;5.28;;
8050;SDS011;4068;42.158;24.732;2022-10-16T11:35:57;6.13;;;4.70;;
8050;SDS011;4068;42.158;24.732;2022-10-16T11:38:48;6.53;;;4.93;;
8050;SDS011;4068;42.158;24.732;2022-10-16T11:41:26;6.00;;;4.60;;
8050;SDS011;4068;42.158;24.732;2022-10-16T11:46:21;7.15;;;4.43;;
8050;SDS011;4068;42.158;24.732;2022-10-16T11:54:52;6.63;;;4.82;;
8050;SDS011;4068;42.158;24.732;2022-10-16T11:57:23;7.93;;;4.88;;
8050;SDS011;4068;42.158;24.732;2022-10-16T11:59:52;7.68;;;5.07;;
8050;SDS011;4068;42.158;24.732;2022-10-16T12:05:23;5.05;;;4.20;;
8050;SDS011;4068;42.158;24.732;2022-10-16T12:07:56;8.98;;;5.15;;
8050;SDS011;4068;42.158;24.732;2022-10-16T12:10:28;8.82;;;5.30;;
8050;SDS011;4068;42.158;24.732;2022-10-16T12:12:56;4.97;;;4.38;;
8050;SDS011;4068;42.158;24.732;2022-10-16T12:15:24;7.60;;;4.55;;
8050;SDS011;4068;42.158;24.732;2022-10-16T12:17:54;6.95;;;4.85;;
8050;SDS011;4068;42.158;24.732;2022-10-16T12:20:28;8.80;;;5.07;;
8050;SDS011;4068;42.158;24.732;2022-10-16T12:23:03;9.73;;;5.03;;
8050;SDS011;4068;42.158;24.732;2022-10-16T12:28:07;10.70;;;5.63;;
8050;SDS011;4068;42.158;24.732;2022-10-16T12:30:56;7.10;;;5.00;;
8050;SDS011;4068;42.158;24.732;2022-10-16T12:36:00;6.35;;;4.63;;
8050;SDS011;4068;42.158;24.732;2022-10-16T12:41:03;7.57;;;5.43;;
8050;SDS011;4068;42.158;24.732;2022-10-16T12:43:44;8.35;;;5.20;;
8050;SDS011;4068;42.158;24.732;2022-10-16T12:48:40;9.13;;;6.18;;
8050;SDS011;4068;42.158;24.732;2022-10-16T12:51:24;9.82;;;5.80;;
8050;SDS011;4068;42.158;24.732;2022-10-16T12:54:03;7.20;;;6.15;;
8050;SDS011;4068;42.158;24.732;2022-10-16T13:02:16;6.70;;;5.20;;
8050;SDS011;4068;42.158;24.732;2022-10-16T13:08:12;7.90;;;5.80;;
8050;SDS011;4068;42.158;24.732;2022-10-16T13:24:42;6.68;;;5.68;;
8050;SDS011;4068;42.158;24.732;2022-10-16T13:30:00;6.45;;;4.95;;
8050;SDS011;4068;42.158;24.732;2022-10-16T13:32:34;6.60;;;4.93;;
8050;SDS011;4068;42.158;24.732;2022-10-16T13:35:00;10.90;;;5.28;;
8050;SDS011;4068;42.158;24.732;2022-10-16T13:37:26;6.20;;;5.40;;
8050;SDS011;4068;42.158;24.732;2022-10-16T13:40:02;6.38;;;4.65;;
8050;SDS011;4068;42.158;24.732;2022-10-16T13:42:42;8.75;;;5.03;;
8050;SDS011;4068;42.158;24.732;2022-10-16T13:45:17;8.02;;;5.38;;
8050;SDS011;4068;42.158;24.732;2022-10-16T13:47:47;6.30;;;4.80;;
8050;SDS011;4068;42.158;24.732;2022-10-16T13:50:14;6.93;;;5.10;;
8050;SDS011;4068;42.158;24.732;2022-10-16T13:52:42;13.90;;;5.18;;
8050;SDS011;4068;42.158;24.732;2022-10-16T13:55:15;9.55;;;6.20;;
8050;SDS011;4068;42.158;24.732;2022-10-16T13:57:42;7.00;;;5.18;;
8050;SDS011;4068;42.158;24.732;2022-10-16T14:00:22;10.90;;;5.63;;
8050;SDS011;4068;42.158;24.732;2022-10-16T14:02:52;8.43;;;5.75;;
8050;SDS011;4068;42.158;24.732;2022-10-16T14:05:33;11.57;;;5.78;;
8050;SDS011;4068;42.158;24.732;2022-10-16T14:07:59;6.30;;;5.45;;
8050;SDS011;4068;42.158;24.732;2022-10-16T14:10:29;6.68;;;4.93;;
8050;SDS011;4068;42.158;24.732;2022-10-16T14:13:04;12.98;;;5.30;;
8050;SDS011;4068;42.158;24.732;2022-10-16T14:15:32;17.52;;;8.27;;
8050;SDS011;4068;42.158;24.732;2022-10-16T14:17:59;10.82;;;5.82;;
8050;SDS011;4068;42.158;24.732;2022-10-16T14:20:29;7.57;;;5.80;;
8050;SDS011;4068;42.158;24.732;2022-10-16T14:25:28;10.38;;;5.32;;
8050;SDS011;4068;42.158;24.732;2022-10-16T14:27:59;7.45;;;6.20;;
8050;SDS011;4068;42.158;24.732;2022-10-16T14:30:26;7.05;;;5.40;;
8050;SDS011;4068;42.158;24.732;2022-10-16T14:32:59;9.77;;;6.05;;
8050;SDS011;4068;42.158;24.732;2022-10-16T14:35:31;7.55;;;5.60;;
8050;SDS011;4068;42.158;24.732;2022-10-16T14:37:59;6.35;;;5.15;;
8050;SDS011;4068;42.158;24.732;2022-10-16T14:40:27;10.55;;;5.28;;
8050;SDS011;4068;42.158;24.732;2022-10-16T14:42:57;9.52;;;5.43;;
8050;SDS011;4068;42.158;24.732;2022-10-16T14:45:25;11.93;;;5.75;;
8050;SDS011;4068;42.158;24.732;2022-10-16T14:47:56;7.50;;;5.82;;
8050;SDS011;4068;42.158;24.732;2022-10-16T14:50:24;7.88;;;5.65;;
8050;SDS011;4068;42.158;24.732;2022-10-16T14:52:50;8.23;;;5.88;;
8050;SDS011;4068;42.158;24.732;2022-10-16T14:55:15;8.55;;;5.65;;
8050;SDS011;4068;42.158;24.732;2022-10-16T14:57:42;8.13;;;5.80;;
8050;SDS011;4068;42.158;24.732;2022-10-16T15:00:19;11.23;;;5.85;;
8050;SDS011;4068;42.158;24.732;2022-10-16T15:02:47;7.55;;;5.63;;
8050;SDS011;4068;42.158;24.732;2022-10-16T15:05:21;8.20;;;5.72;;
8050;SDS011;4068;42.158;24.732;2022-10-16T15:07:50;10.05;;;5.65;;
8050;SDS011;4068;42.158;24.732;2022-10-16T15:10:17;8.77;;;6.60;;
8050;SDS011;4068;42.158;24.732;2022-10-16T15:12:43;10.15;;;6.45;;
8050;SDS011;4068;42.158;24.732;2022-10-16T15:17:52;12.82;;;6.30;;
8050;SDS011;4068;42.158;24.732;2022-10-16T15:20:22;7.88;;;5.90;;
8050;SDS011;4068;42.158;24.732;2022-10-16T15:22:48;7.50;;;5.47;;
8050;SDS011;4068;42.158;24.732;2022-10-16T15:27:54;10.50;;;6.53;;
8050;SDS011;4068;42.158;24.732;2022-10-16T15:30:19;8.68;;;5.57;;
8050;SDS011;4068;42.158;24.732;2022-10-16T15:32:45;12.38;;;6.50;;
8050;SDS011;4068;42.158;24.732;2022-10-16T15:35:10;10.77;;;6.70;;
8050;SDS011;4068;42.158;24.732;2022-10-16T15:37:35;9.00;;;6.07;;
8050;SDS011;4068;42.158;24.732;2022-10-16T15:40:01;9.10;;;6.03;;
8050;SDS011;4068;42.158;24.732;2022-10-16T15:42:26;14.48;;;6.45;;
8050;SDS011;4068;42.158;24.732;2022-10-16T15:44:52;13.77;;;6.40;;
8050;SDS011;4068;42.158;24.732;2022-10-16T15:47:17;10.98;;;7.28;;
8050;SDS011;4068;42.158;24.732;2022-10-16T15:49:42;13.43;;;7.45;;
8050;SDS011;4068;42.158;24.732;2022-10-16T15:52:08;12.45;;;8.13;;
8050;SDS011;4068;42.158;24.732;2022-10-16T15:54:33;15.43;;;8.90;;
8050;SDS011;4068;42.158;24.732;2022-10-16T15:56:59;14.27;;;8.18;;
8050;SDS011;4068;42.158;24.732;2022-10-16T15:59:24;13.88;;;8.05;;
8050;SDS011;4068;42.158;24.732;2022-10-16T16:01:50;12.73;;;8.20;;
8050;SDS011;4068;42.158;24.732;2022-10-16T16:04:15;12.57;;;7.90;;
8050;SDS011;4068;42.158;24.732;2022-10-16T16:06:41;14.43;;;8.15;;
8050;SDS011;4068;42.158;24.732;2022-10-16T16:09:09;13.13;;;7.35;;
8050;SDS011;4068;42.158;24.732;2022-10-16T16:11:36;12.63;;;8.05;;
8050;SDS011;4068;42.158;24.732;2022-10-16T16:14:04;18.05;;;8.15;;
8050;SDS011;4068;42.158;24.732;2022-10-16T16:16:32;11.25;;;7.93;;
8050;SDS011;4068;42.158;24.732;2022-10-16T16:19:03;11.30;;;7.38;;
8050;SDS011;4068;42.158;24.732;2022-10-16T16:21:32;11.55;;;7.65;;
8050;SDS011;4068;42.158;24.732;2022-10-16T16:23:58;16.60;;;8.48;;
8050;SDS011;4068;42.158;24.732;2022-10-16T16:26:25;18.02;;;9.05;;
8050;SDS011;4068;42.158;24.732;2022-10-16T16:28:52;13.75;;;9.18;;
8050;SDS011;4068;42.158;24.732;2022-10-16T16:31:19;13.15;;;9.18;;
8050;SDS011;4068;42.158;24.732;2022-10-16T16:33:46;17.48;;;9.95;;
8050;SDS011;4068;42.158;24.732;2022-10-16T16:36:11;16.35;;;8.95;;
8050;SDS011;4068;42.158;24.732;2022-10-16T16:38:37;16.10;;;8.60;;
8050;SDS011;4068;42.158;24.732;2022-10-16T16:43:38;13.65;;;8.80;;